• Join FlightAware (Why Join?)
  • Login
  • US Flag 
10:58AM EST


 

Airport Tracker/Info


-or-


 

Live Flight TrackerFlight Track Log ✈ FDX1425 ✈ 22-Jun-2013 ✈ KMEM - KIAH

Flight Track Log - Related Links

Times and Time Zones

All times are in EDT time to prevent confusion due to time zone crossing. See the FDX1425 flight status page for this flight to view local times or setup timezone preferences in your user account.

Time Position Orientation Groundspeed Altitude Reporting Facility
EDT Latitude Longitude Course Direction KTS MPH feet Rate Location/Type
05:15AM 35.0333 -89.9833 180° South 153 176 1,000  Level KMEM
05:16AM 34.9667 -89.9833 180° South 202 232 3,500 2,280 Climbing KMEM
05:17AM 34.8833 -89.9833 180° South 256 295 6,300 2,820 Climbing KMEM
05:18AM 34.8333 -90.0167 209° Southwest 291 335 9,200 2,460 Climbing KMEM
05:19AM 34.7672 -90.1144 231° Southwest 323 372 11,300 2,100 Climbing Memphis Center
05:20AM 34.7025 -90.2031 228° Southwest 343 395 13,700 2,520 Climbing Memphis Center
05:21AM 34.6317 -90.2964 227° Southwest 367 422 16,400 2,460 Climbing Memphis Center
05:22AM 34.5608 -90.3900 227° Southwest 373 429 18,700 2,100 Climbing Memphis Center
05:23AM 34.4836 -90.4856 226° Southwest 378 435 20,700 2,040 Climbing Memphis Center
05:24AM 34.3936 -90.5686 217° Southwest 403 464 22,800 1,860 Climbing Memphis Center
05:25AM 34.3017 -90.6564 218° Southwest 415 478 24,500 1,560 Climbing Memphis Center
05:26AM 34.2286 -90.7414 224° Southwest 415 478 26,000 1,500 Climbing Memphis Center
05:27AM 34.1425 -90.8467 225° Southwest 428 493 27,600 1,380 Climbing Memphis Center
05:28AM 34.0544 -90.9489 224° Southwest 443 510 28,800 1,380 Climbing Memphis Center
05:29AM 33.9622 -91.0533 223° Southwest 448 516 30,400 1,440 Climbing Memphis Center
05:30AM 33.8717 -91.1553 223° Southwest 448 516 31,700 1,200 Climbing Memphis Center
05:31AM 33.7750 -91.2719 225° Southwest 454 522 32,800 1,320 Climbing Memphis Center
05:32AM 33.6822 -91.3756 223° Southwest 449 517 34,400 1,200 Climbing Memphis Center
05:33AM 33.6000 -91.4744 225° Southwest 454 522 35,300 780 Climbing Memphis Center
05:34AM 33.5094 -91.5781 224° Southwest 454 522 36,000 180 Climbing Memphis Center
05:36AM 33.3094 -91.8086 224° Southwest 458 527 36,000  Level Fort Worth Center
05:37AM 33.2144 -91.9239 225° Southwest 463 533 36,000  Level Fort Worth Center
05:38AM 33.1144 -92.0269 221° Southwest 468 539 36,000  Level Fort Worth Center
05:39AM 33.0231 -92.1314 224° Southwest 468 539 36,000  Level Fort Worth Center
05:40AM 32.9292 -92.2361 223° Southwest 468 539 36,000  Level Fort Worth Center
05:41AM 32.8375 -92.3428 224° Southwest 468 539 36,000  Level Fort Worth Center
05:42AM 32.7456 -92.4442 223° Southwest 463 533 36,000  Level Fort Worth Center
05:43AM 32.6517 -92.5481 223° Southwest 463 533 36,000  Level Fort Worth Center
05:44AM 32.5556 -92.6517 222° Southwest 471 542 36,000  Level Fort Worth Center
05:45AM 32.4633 -92.7550 223° Southwest 465 535 36,000  Level Fort Worth Center
05:46AM 32.3775 -92.8603 226° Southwest 471 542 36,000  Level Fort Worth Center
05:47AM 32.2828 -92.9608 222° Southwest 471 542 36,000  Level Fort Worth Center
05:50AM 32.0575 -93.2053 223° Southwest 458 527 36,000 -60 Level Houston Center
05:51AM 31.9631 -93.3108 223° Southwest 467 537 35,900  Descending Houston Center
05:52AM 31.8672 -93.4097 221° Southwest 464 534 36,000  Climbing Houston Center
05:53AM 31.7653 -93.5003 217° Southwest 464 534 36,000  Level Houston Center
05:54AM 31.6622 -93.5858 215° Southwest 459 528 36,000  Level Houston Center
05:55AM 31.5553 -93.6781 216° Southwest 469 540 36,000 -300 Level Houston Center
05:56AM 31.4500 -93.7672 216° Southwest 466 536 35,400 -1,140 Descending Houston Center
05:57AM 31.3467 -93.8547 216° Southwest 459 528 33,800 -2,340 Descending Houston Center
05:58AM 31.2439 -93.9414 216° Southwest 453 521 30,700 -2,520 Descending Houston Center
06:03AM 30.7083 -94.3930 216° Southwest 390 449 17,400 -2,400 Descending FlightAware ADS-B
06:04AM 30.6629 -94.4311 216° Southwest 378 435 16,300 -2,100 Descending FlightAware ADS-B
06:05AM 30.6165 -94.4694 215° Southwest 368 423 15,200 -1,980 Descending FlightAware ADS-B
06:05AM 30.5750 -94.5038 216° Southwest 360 414 14,200 -1,980 Descending FlightAware ADS-B
06:06AM 30.5323 -94.5394 216° Southwest 353 406 13,200 -1,980 Descending FlightAware ADS-B
06:06AM 30.4921 -94.5723 215° Southwest 346 398 12,200 -1,920 Descending FlightAware ADS-B
06:07AM 30.4525 -94.6056 216° Southwest 340 391 11,300 -1,380 Descending FlightAware ADS-B
06:07AM 30.4145 -94.6368 215° Southwest 322 371 10,800 -1,200 Descending FlightAware ADS-B
06:09AM 30.2826 -94.7456 215° Southwest 289 333 8,400 -1,200 Descending FlightAware ADS-B
06:09AM 30.2661 -94.7598 217° Southwest 280 322 8,200 -1,380 Descending FlightAware ADS-B
06:10AM 30.2499 -94.7730 215° Southwest 282 325 7,700 -1,800 Descending FlightAware ADS-B
06:10AM 30.2336 -94.7863 215° Southwest 283 326 7,300 -1,020 Descending FlightAware ADS-B
06:10AM 30.2168 -94.8002 216° Southwest 272 313 7,200 -1,200 Descending FlightAware ADS-B
06:10AM 30.2014 -94.8129 215° Southwest 274 315 6,700 -1,800 Descending FlightAware ADS-B
06:11AM 30.1856 -94.8267 217° Southwest 276 318 6,300 -1,200 Descending FlightAware ADS-B
06:11AM 30.1693 -94.8393 214° Southwest 268 308 6,100 -1,320 Descending FlightAware ADS-B
06:11AM 30.1383 -94.8655 216° Southwest 268 308 5,300 -1,380 Descending FlightAware ADS-B
06:12AM 30.1112 -94.8875 216° Southwest 263 303 4,800 -1,320 Descending FlightAware ADS-B
06:12AM 30.0958 -94.8996 214° Southwest 263 303 4,400 -1,440 Descending FlightAware ADS-B
06:12AM 30.0807 -94.9126 217° Southwest 261 300 4,100 -1,080 Descending FlightAware ADS-B
06:13AM 30.0676 -94.9230 214° Southwest 253 291 3,900 -420 Descending FlightAware ADS-B
06:13AM 30.0536 -94.9342 215° Southwest 237 273 3,900  Level FlightAware ADS-B
06:13AM 30.0382 -94.9468 215° Southwest 219 252 3,900  Level FlightAware ADS-B
06:13AM 30.0325 -94.9533 225° Southwest 217 250 3,900 -600 Level FlightAware ADS-B
06:13AM 30.0308 -94.9560 234° Southwest 217 250 3,800 -1,380 Descending FlightAware ADS-B
06:13AM 30.0278 -94.9633 245° Southwest 218 251 3,700 -1,020 Descending FlightAware ADS-B
06:14AM 30.0259 -94.9687 248° West 218 251 3,600 -1,020 Descending FlightAware ADS-B
06:14AM 30.0234 -94.9763 249° West 217 250 3,500 -1,020 Descending FlightAware ADS-B
06:14AM 30.0214 -94.9817 247° West 217 250 3,400 -1,140 Descending FlightAware ADS-B
06:14AM 30.0151 -94.9987 247° West 216 249 3,100 -1,200 Descending FlightAware ADS-B
06:14AM 30.0092 -95.0146 247° West 215 247 2,800 -1,020 Descending FlightAware ADS-B
06:14AM 30.0035 -95.0316 249° West 213 245 2,600 -840 Descending FlightAware ADS-B
06:15AM 29.9980 -95.0470 248° West 204 235 2,400 -840 Descending FlightAware ADS-B
06:15AM 29.9927 -95.0618 248° West 195 224 2,200 -600 Descending FlightAware ADS-B
06:15AM 29.9875 -95.0761 247° West 187 215 2,100 -600 Descending FlightAware ADS-B
06:15AM 29.9829 -95.0906 250° West 179 206 1,900 -540 Descending FlightAware ADS-B
06:16AM 29.9803 -95.0976 247° West 177 204 1,900  Level FlightAware ADS-B
06:16AM 29.9783 -95.1106 260° West 179 206 1,900  Level FlightAware ADS-B
06:16AM 29.9781 -95.1153 267° West 179 206 1,900  Level FlightAware ADS-B
06:16AM 29.9775 -95.1278 267° West 181 208 1,900  Level FlightAware ADS-B
06:16AM 29.9774 -95.1442 270° West 181 208 1,900  Level FlightAware ADS-B
06:17AM 29.9775 -95.1510 271° West 181 208 1,900  Level FlightAware ADS-B
06:17AM 29.9775 -95.1665 270° West 181 208 1,900  Level FlightAware ADS-B
06:17AM 29.9776 -95.1770 271° West 172 198 1,900 -300 Level FlightAware ADS-B
06:17AM 29.9776 -95.2005 270° West 159 183 1,700 -540 Descending FlightAware ADS-B
06:18AM 29.9775 -95.2145 270° West 141 162 1,500 -660 Descending FlightAware ADS-B
06:18AM 29.9775 -95.2227 270° West 139 160 1,400 -660 Descending FlightAware ADS-B
06:18AM 29.9776 -95.2345 271° West 136 157 1,200 -720 Descending FlightAware ADS-B
06:19AM 29.9776 -95.2467 270° West 135 155 1,000 -780 Descending FlightAware ADS-B
06:19AM 29.9776 -95.2582 270° West 134 154 800 -780 Descending FlightAware ADS-B
06:19AM 29.9776 -95.2697 270° West 135 155 600 -780 Descending FlightAware ADS-B
06:19AM 29.9776 -95.2827 270° West 135 155 400 -780 Descending FlightAware ADS-B
06:20AM 29.9776 -95.2928 270° West 136 157 200 -840 Descending FlightAware ADS-B